aviador You're here:

MMZH Decoded Metar

ZIHUATANEJO in MEXICO
Report Time2017-04-29 16:45:00
UTC Time2017-04-29 17:46:09
Flight Rules mvfr MVFR
Wind220° at 08 kt
W.Decomp.*RWY 26: 5.5 kt HW 5.9 kt LCW
W.Rank220° ranks 2
Current wind is above 220° avg. (7.6)
Visibility8047 m
Phenomena:N/A
Clouds:Scattered 020 Hf
Scattered 100 Hf
Overcast 250 Hf
Expected CloudBase > 3,200 ft AGL from Temp-Dew spread
Ceiling25,000 ft
Temp29°C (ISA +14)
Dew Point21°C (62% RH)
Heat Index31.3°C
QNH1013 hPa
Density Alt1,959 ft
Elevation20 ft
Report Wrong Elevation
Raw Report
METAR MMZH 291645Z 22008KT 5SM SCT020 SCT100 OVC250 29/21 A2992 RMK
8/537 HZY=

Extra information for MMZH:More info

Metar Taf Metar & Taf Last 4 Metars F.Rules Stats Wind Profile Meteogram Temp Stats Airport Information Weather charts Add Link Nearby VenuesMetar ALERT Operation Metar Decoded Social comments